Hauptseite
METAR-TAF:

METAR-TAF

Flughäfen :

Glücksburg, Deutschland

Meierwik

Breite: 54-50N, Länge: 009-30E, Höhe: 27 m

Beobachtung

Neuester Wetterbericht von vor 34 Minuten, um 08:20 UTC
Wind 13 kt aus Süd
Temperatur 8°C
Luftfeuchtigkeit 100%
Luftdruck 999 hPa
Sichtweite: 5000 m
Durchbrochene Bewölkung in der Höhe von 900 ft
Durchbrochene Bewölkung in der Höhe von 1500 ft
Sprühregen leicht, feuchter Dunst

METAR: ETGG 270820Z 19013KT 5000 -DZ BR BKN009 BKN015 08/08 Q0999 GRN

Zeit: 09:54 (08:54 UTC)


TAF: fehlend

Wetterbeobachtungen und Prognosen von mehr als 4000 Flughäfen (METAR und TAF Bericht).

Die verfügbaren Stationen werden durch gelbe und rote Markierungen auf der Karte dargestellt.

Führen Sie die Maus auf sie, um den Namen der Station zu sehen.

Darauf klicken, um die Beobachtung von Wetterbeobachtungen und Prognosen zu sehen.

Um die Karte zu ändern : klicken Sie auf den grünen Tasten mit einem schwarzen Kreuz Zum Vergrößern, auf den grünen Button mit einem Gedankenstrich zu verkleinern, oder auf die grünen Pfeile für benachbarte Karten.


METAR-TAF: